Ekimchan, Russia
Current Conditions -  °F | °C
As of 10:00 AM on Friday 28 Nov 2014 (Local Time) from UHBB Reporting Station
Clear Clear  
Wind Chill: -6°   Ceiling: Unl
Heat Index: -6°   Visibility: 6mi
Dew Point: -9°   Wind: 0mph
Humidity: 84%   Direction: NA
Pressure: 30.3"   Gusts: NA
Location:  53.07°N, 132.97°E
Report Text: UHBB 280100Z 00000MPS CAVOK M21/M23 Q1026 NOSIG RMK QFE752/100236410250
Loading
Personal Weather Stations






























Interactive Weather Map New forecast layout! Learn more

10-Day Weather Forecast

Advertisements
Track Severe Weather on mobile